Time;durP1;ratioP1;P1;durP2;ratioP2;P2;SDS_P1;SDS_P2;PMS_P1;PMS_P2;Temp;Humidity;BMP_temperature;BMP_pressure;BME280_temperature;BME280_humidity;BME280_pressure;Samples;Min_cycle;Max_cycle;Signal;HPM_P1;HPM_P2
2023/09/26 00:00:19;;;;;;;0.00;0.00;;;;;;;;;;1736780;28;20302;-79
2023/09/26 00:01:12;;;;;;;0.00;0.00;;;;;;;;;;1736608;28;20242;-80
2023/09/26 00:02:03;;;;;;;0.00;0.00;;;;;;;;;;1738097;28;20204;-80
2023/09/26 00:02:55;;;;;;;0.00;0.00;;;;;;;;;;1736404;28;20503;-80
2023/09/26 00:03:46;;;;;;;0.00;0.00;;;;;;;;;;1733634;28;20928;-80
2023/09/26 00:04:37;;;;;;;0.00;0.00;;;;;;;;;;1730811;28;20204;-79
2023/09/26 00:05:29;;;;;;;0.00;0.00;;;;;;;;;;1732706;28;20211;-81
2023/09/26 00:06:20;;;;;;;0.00;0.00;;;;;;;;;;1736200;28;20226;-80
2023/09/26 00:07:12;;;;;;;0.00;0.00;;;;;;;;;;1736562;28;20219;-80
2023/09/26 00:08:05;;;;;;;0.00;0.00;;;;;;;;;;1735109;28;20688;-80
2023/09/26 00:08:56;;;;;;;0.00;0.00;;;;;;;;;;1739109;28;20219;-80
2023/09/26 00:09:48;;;;;;;0.00;0.00;;;;;;;;;;1735210;28;20199;-80
2023/09/26 00:10:40;;;;;;;0.00;0.00;;;;;;;;;;1737784;28;20245;-80
2023/09/26 00:11:33;;;;;;;0.00;0.00;;;;;;;;;;1734818;28;20207;-80
2023/09/26 00:12:24;;;;;;;0.00;0.00;;;;;;;;;;1736814;28;20200;-80
2023/09/26 00:13:17;;;;;;;0.00;0.00;;;;;;;;;;1738102;28;20206;-80
2023/09/26 00:14:09;;;;;;;0.00;0.00;;;;;;;;;;1734690;28;20247;-81
2023/09/26 00:15:00;;;;;;;0.00;0.00;;;;;;;;;;1727864;28;20226;-80
2023/09/26 00:15:52;;;;;;;0.00;0.00;;;;;;;;;;1733239;28;20231;-80
2023/09/26 00:16:43;;;;;;;0.00;0.00;;;;;;;;;;1735941;28;20212;-80
2023/09/26 00:17:34;;;;;;;0.00;0.00;;;;;;;;;;1734161;28;20203;-80
2023/09/26 00:18:27;;;;;;;0.00;0.00;;;;;;;;;;1735393;28;20197;-81
2023/09/26 00:19:18;;;;;;;0.00;0.00;;;;;;;;;;1736217;28;20600;-80
2023/09/26 00:20:27;;;;;;;0.00;0.00;;;;;;;;;;1737172;28;20207;-80
2023/09/26 00:21:20;;;;;;;0.00;0.00;;;;;;;;;;1735603;28;20275;-80
2023/09/26 00:22:11;;;;;;;0.00;0.00;;;;;;;;;;1737585;28;20218;-80
2023/09/26 00:23:03;;;;;;;0.00;0.00;;;;;;;;;;1732977;28;20272;-80
2023/09/26 00:23:54;;;;;;;0.00;0.00;;;;;;;;;;1739005;28;20215;-80
2023/09/26 00:24:45;;;;;;;0.00;0.00;;;;;;;;;;1737900;28;20537;-80
2023/09/26 00:25:37;;;;;;;0.00;0.00;;;;;;;;;;1734986;28;20238;-80
2023/09/26 00:26:29;;;;;;;0.00;0.00;;;;;;;;;;1735787;28;20253;-80
2023/09/26 00:27:20;;;;;;;0.00;0.00;;;;;;;;;;1735598;28;20195;-80
2023/09/26 00:28:12;;;;;;;0.00;0.00;;;;;;;;;;1734877;28;20199;-80
2023/09/26 00:29:05;;;;;;;0.00;0.00;;;;;;;;;;1740988;28;20693;-80
2023/09/26 00:29:57;;;;;;;0.00;0.00;;;;;;;;;;1736514;28;20211;-80
2023/09/26 00:30:49;;;;;;;0.00;0.00;;;;;;;;;;1734050;28;20239;-80
2023/09/26 00:31:41;;;;;;;0.00;0.00;;;;;;;;;;1745599;28;20230;-80
2023/09/26 00:32:33;;;;;;;0.00;0.00;;;;;;;;;;1741256;28;20199;-80
2023/09/26 00:33:24;;;;;;;0.00;0.00;;;;;;;;;;1738917;28;20204;-80
2023/09/26 00:34:17;;;;;;;0.00;0.00;;;;;;;;;;1736734;28;20207;-80
2023/09/26 00:35:11;;;;;;;0.00;0.00;;;;;;;;;;1735372;28;20216;-80
2023/09/26 00:36:07;;;;;;;0.00;0.00;;;;;;;;;;1735022;28;20322;-80
2023/09/26 00:36:58;;;;;;;0.00;0.00;;;;;;;;;;1738691;28;20317;-80
2023/09/26 00:40:25;;;;;;;0.00;0.00;;;;;;;;;;1732210;28;20357;-81
2023/09/26 00:41:16;;;;;;;0.00;0.00;;;;;;;;;;1740003;28;20200;-80
2023/09/26 00:42:08;;;;;;;0.00;0.00;;;;;;;;;;1744033;28;20237;-80
2023/09/26 00:43:00;;;;;;;0.00;0.00;;;;;;;;;;1747243;28;20238;-80
2023/09/26 00:43:51;;;;;;;0.00;0.00;;;;;;;;;;1747612;28;20531;-80
2023/09/26 00:44:44;;;;;;;0.00;0.00;;;;;;;;;;1744122;28;20203;-80
2023/09/26 00:45:35;;;;;;;0.00;0.00;;;;;;;;;;1743208;28;20341;-80
2023/09/26 00:46:28;;;;;;;0.00;0.00;;;;;;;;;;1739377;28;20209;-80
2023/09/26 00:47:19;;;;;;;0.00;0.00;;;;;;;;;;1737308;28;20196;-80
2023/09/26 00:48:10;;;;;;;0.00;0.00;;;;;;;;;;1740727;28;20208;-78
2023/09/26 00:49:04;;;;;;;0.00;0.00;;;;;;;;;;1742176;28;20574;-78
2023/09/26 00:49:57;;;;;;;0.00;0.00;;;;;;;;;;1744924;28;20236;-78
2023/09/26 00:50:48;;;;;;;0.00;0.00;;;;;;;;;;1742092;28;20227;-80
2023/09/26 00:51:40;;;;;;;0.00;0.00;;;;;;;;;;1741368;28;20203;-81
2023/09/26 00:52:32;;;;;;;0.00;0.00;;;;;;;;;;1743440;28;20235;-81
2023/09/26 00:53:24;;;;;;;0.00;0.00;;;;;;;;;;1739941;28;20204;-81
2023/09/26 00:54:16;;;;;;;0.00;0.00;;;;;;;;;;1742816;28;20222;-81
2023/09/26 00:55:08;;;;;;;0.00;0.00;;;;;;;;;;1736669;28;20226;-81
2023/09/26 00:56:00;;;;;;;0.00;0.00;;;;;;;;;;1736804;28;20601;-81
2023/09/26 00:56:52;;;;;;;0.00;0.00;;;;;;;;;;1744518;28;20198;-81
2023/09/26 00:57:43;;;;;;;0.00;0.00;;;;;;;;;;1739816;28;20300;-81
2023/09/26 00:58:35;;;;;;;0.00;0.00;;;;;;;;;;1738358;28;20209;-80
2023/09/26 00:59:27;;;;;;;0.00;0.00;;;;;;;;;;1737287;28;20237;-79
2023/09/26 01:00:20;;;;;;;0.00;0.00;;;;;;;;;;1738999;28;20214;-79
2023/09/26 01:01:12;;;;;;;0.00;0.00;;;;;;;;;;1743537;28;20760;-79
2023/09/26 01:02:03;;;;;;;0.00;0.00;;;;;;;;;;1738559;28;20199;-79
2023/09/26 01:02:56;;;;;;;0.10;0.10;;;;;;;;;;1740523;28;20203;-80
2023/09/26 01:03:48;;;;;;;0.00;0.00;;;;;;;;;;1740468;28;20207;-79
2023/09/26 01:04:39;;;;;;;0.00;0.00;;;;;;;;;;1740409;28;20215;-80
2023/09/26 01:05:30;;;;;;;0.00;0.00;;;;;;;;;;1740118;28;20970;-80
2023/09/26 01:06:23;;;;;;;0.00;0.00;;;;;;;;;;1738752;28;20199;-81
2023/09/26 01:07:14;;;;;;;0.00;0.00;;;;;;;;;;1741203;28;20199;-79
2023/09/26 01:08:07;;;;;;;0.00;0.00;;;;;;;;;;1739232;28;20214;-80
2023/09/26 01:08:58;;;;;;;0.00;0.00;;;;;;;;;;1739575;28;20224;-80
2023/09/26 01:09:50;;;;;;;0.00;0.00;;;;;;;;;;1742494;28;20219;-79
2023/09/26 01:10:42;;;;;;;0.00;0.00;;;;;;;;;;1743506;28;20241;-80
2023/09/26 01:11:33;;;;;;;0.00;0.00;;;;;;;;;;1742243;28;20580;-80
2023/09/26 01:12:24;;;;;;;0.00;0.00;;;;;;;;;;1737873;28;20207;-79
2023/09/26 01:13:16;;;;;;;0.00;0.00;;;;;;;;;;1742625;28;20207;-79
2023/09/26 01:14:08;;;;;;;0.00;0.00;;;;;;;;;;1748010;28;20244;-80
2023/09/26 01:15:00;;;;;;;0.00;0.00;;;;;;;;;;1742077;28;20579;-80
2023/09/26 01:15:52;;;;;;;0.00;0.00;;;;;;;;;;1738581;28;20966;-80
2023/09/26 01:16:44;;;;;;;0.00;0.00;;;;;;;;;;1743497;28;20210;-80
2023/09/26 01:17:36;;;;;;;0.00;0.00;;;;;;;;;;1741675;28;20207;-80
2023/09/26 01:18:27;;;;;;;0.00;0.00;;;;;;;;;;1739860;28;20242;-79
2023/09/26 01:19:19;;;;;;;0.00;0.00;;;;;;;;;;1740419;28;20199;-80
2023/09/26 01:20:14;;;;;;;0.00;0.00;;;;;;;;;;1734305;28;20523;-80
2023/09/26 01:21:17;;;;;;;0.00;0.00;;;;;;;;;;1737619;28;20228;-79
2023/09/26 01:22:43;;;;;;;0.00;0.00;;;;;;;;;;1736068;28;20206;-80
2023/09/26 01:24:00;;;;;;;0.00;0.00;;;;;;;;;;1738225;28;20226;-80
2023/09/26 01:25:04;;;;;;;0.00;0.00;;;;;;;;;;1723717;28;20341;-80
2023/09/26 01:25:55;;;;;;;0.00;0.00;;;;;;;;;;1734315;28;20246;-80
2023/09/26 01:26:47;;;;;;;0.00;0.00;;;;;;;;;;1742089;28;20285;-82
2023/09/26 01:27:39;;;;;;;0.00;0.00;;;;;;;;;;1740165;28;20204;-80
2023/09/26 01:28:30;;;;;;;0.00;0.00;;;;;;;;;;1741835;28;20203;-81
2023/09/26 01:29:22;;;;;;;0.00;0.00;;;;;;;;;;1740494;28;20276;-80
2023/09/26 01:30:14;;;;;;;0.00;0.00;;;;;;;;;;1741752;28;20210;-82
2023/09/26 01:31:06;;;;;;;0.00;0.00;;;;;;;;;;1748592;28;20183;-80
2023/09/26 01:31:57;;;;;;;0.00;0.00;;;;;;;;;;1749753;28;20198;-81
2023/09/26 01:32:48;;;;;;;0.00;0.00;;;;;;;;;;1746272;28;20205;-81
2023/09/26 01:33:40;;;;;;;0.00;0.00;;;;;;;;;;1747460;28;20206;-81
2023/09/26 01:34:32;;;;;;;0.00;0.00;;;;;;;;;;1742709;28;20207;-81
2023/09/26 01:35:23;;;;;;;0.00;0.00;;;;;;;;;;1741044;28;20238;-81
2023/09/26 01:36:15;;;;;;;0.00;0.00;;;;;;;;;;1740307;28;20187;-82
2023/09/26 01:37:07;;;;;;;0.00;0.00;;;;;;;;;;1745410;28;20214;-81
2023/09/26 01:37:58;;;;;;;0.00;0.00;;;;;;;;;;1740039;28;20246;-81
2023/09/26 01:38:51;;;;;;;0.00;0.00;;;;;;;;;;1742318;28;20198;-82
2023/09/26 01:39:42;;;;;;;0.00;0.00;;;;;;;;;;1740154;28;20653;-82
2023/09/26 01:40:35;;;;;;;0.00;0.00;;;;;;;;;;1741361;28;20249;-82
2023/09/26 01:41:28;;;;;;;0.00;0.00;;;;;;;;;;1745109;28;20195;-81
2023/09/26 01:45:16;;;;;;;0.00;0.00;;;;;;;;;;1732860;28;20230;-84
2023/09/26 01:46:09;;;;;;;0.00;0.00;;;;;;;;;;1743197;28;20199;-82
2023/09/26 01:47:01;;;;;;;0.00;0.00;;;;;;;;;;1748272;28;20206;-82
2023/09/26 01:47:52;;;;;;;0.00;0.00;;;;;;;;;;1742813;28;20671;-82
2023/09/26 01:48:45;;;;;;;0.00;0.00;;;;;;;;;;1747162;28;20637;-82
2023/09/26 01:49:37;;;;;;;0.00;0.00;;;;;;;;;;1744485;28;20210;-81
2023/09/26 01:50:28;;;;;;;0.00;0.00;;;;;;;;;;1740189;28;20301;-79
2023/09/26 01:51:21;;;;;;;0.00;0.00;;;;;;;;;;1740618;28;20214;-80
2023/09/26 01:52:12;;;;;;;0.00;0.00;;;;;;;;;;1740919;28;20219;-80
2023/09/26 01:53:04;;;;;;;0.00;0.00;;;;;;;;;;1742270;28;20207;-80
2023/09/26 01:53:55;;;;;;;0.00;0.00;;;;;;;;;;1734877;28;20637;-80
2023/09/26 01:54:47;;;;;;;0.00;0.00;;;;;;;;;;1741466;28;20216;-80
2023/09/26 01:55:40;;;;;;;0.00;0.00;;;;;;;;;;1746580;28;20264;-80
2023/09/26 01:56:33;;;;;;;0.00;0.00;;;;;;;;;;1742891;28;20253;-80
2023/09/26 01:57:24;;;;;;;0.00;0.00;;;;;;;;;;1742226;28;20577;-80
2023/09/26 01:58:15;;;;;;;0.00;0.00;;;;;;;;;;1745338;28;20201;-80
2023/09/26 01:59:07;;;;;;;0.00;0.00;;;;;;;;;;1745683;28;20290;-80
2023/09/26 02:00:00;;;;;;;0.00;0.00;;;;;;;;;;1745275;28;20203;-80
2023/09/26 02:00:53;;;;;;;0.00;0.00;;;;;;;;;;1745418;28;20242;-81
2023/09/26 02:01:45;;;;;;;0.00;0.00;;;;;;;;;;1746456;28;20206;-80
2023/09/26 02:02:37;;;;;;;0.00;0.00;;;;;;;;;;1745207;28;20247;-80
2023/09/26 02:03:28;;;;;;;0.00;0.00;;;;;;;;;;1743222;28;20638;-80
2023/09/26 02:04:20;;;;;;;0.00;0.00;;;;;;;;;;1743450;28;20599;-80
2023/09/26 02:05:12;;;;;;;0.00;0.00;;;;;;;;;;1743617;28;20273;-80
2023/09/26 02:06:04;;;;;;;0.00;0.00;;;;;;;;;;1738973;28;20242;-79
2023/09/26 02:06:55;;;;;;;0.00;0.00;;;;;;;;;;1741761;28;20225;-79
2023/09/26 02:07:47;;;;;;;0.00;0.00;;;;;;;;;;1738285;28;20198;-80
2023/09/26 02:08:39;;;;;;;0.00;0.00;;;;;;;;;;1738310;28;20203;-80
2023/09/26 02:09:30;;;;;;;0.00;0.00;;;;;;;;;;1742727;28;20210;-80
2023/09/26 02:10:22;;;;;;;0.00;0.00;;;;;;;;;;1740892;28;20257;-85
2023/09/26 02:11:15;;;;;;;0.00;0.00;;;;;;;;;;1744727;28;20718;-81
2023/09/26 02:12:07;;;;;;;0.00;0.00;;;;;;;;;;1744466;28;20235;-82
2023/09/26 02:12:59;;;;;;;0.00;0.00;;;;;;;;;;1737715;28;20690;-82
2023/09/26 02:13:51;;;;;;;0.00;0.00;;;;;;;;;;1742761;28;20230;-82
2023/09/26 02:14:42;;;;;;;0.00;0.00;;;;;;;;;;1743549;28;20203;-82
2023/09/26 02:15:36;;;;;;;0.00;0.00;;;;;;;;;;1747446;28;20197;-83
2023/09/26 02:16:28;;;;;;;0.00;0.00;;;;;;;;;;1742976;28;20315;-82
2023/09/26 02:17:19;;;;;;;0.00;0.00;;;;;;;;;;1745991;28;20207;-82
2023/09/26 02:18:11;;;;;;;0.00;0.00;;;;;;;;;;1744065;28;20252;-83
2023/09/26 02:19:02;;;;;;;0.00;0.00;;;;;;;;;;1744470;28;20198;-82
2023/09/26 02:19:53;;;;;;;0.00;0.00;;;;;;;;;;1745236;28;20214;-82
2023/09/26 02:20:46;;;;;;;0.00;0.00;;;;;;;;;;1743478;28;20248;-82
2023/09/26 02:21:37;;;;;;;0.00;0.00;;;;;;;;;;1744701;28;20734;-82
2023/09/26 02:22:28;;;;;;;0.00;0.00;;;;;;;;;;1742071;28;20203;-83
2023/09/26 02:23:20;;;;;;;0.00;0.00;;;;;;;;;;1740164;28;20201;-82
2023/09/26 02:24:11;;;;;;;0.00;0.00;;;;;;;;;;1744901;28;20203;-82
2023/09/26 02:25:10;;;;;;;0.00;0.00;;;;;;;;;;1743793;28;20684;-83
2023/09/26 02:26:03;;;;;;;0.00;0.00;;;;;;;;;;1737888;28;20576;-82
2023/09/26 02:26:57;;;;;;;0.00;0.00;;;;;;;;;;1738825;28;20212;-83
2023/09/26 02:27:49;;;;;;;0.00;0.00;;;;;;;;;;1742337;28;20203;-83
2023/09/26 02:28:41;;;;;;;0.00;0.00;;;;;;;;;;1738949;28;20211;-83
2023/09/26 02:29:32;;;;;;;0.00;0.00;;;;;;;;;;1736851;28;20254;-82
2023/09/26 02:30:25;;;;;;;0.00;0.00;;;;;;;;;;1741838;28;20191;-83
2023/09/26 02:31:16;;;;;;;0.00;0.00;;;;;;;;;;1742358;28;20267;-84
2023/09/26 02:32:07;;;;;;;0.00;0.00;;;;;;;;;;1745724;28;20198;-84
2023/09/26 02:32:59;;;;;;;0.00;0.00;;;;;;;;;;1744533;28;20238;-84
2023/09/26 02:33:50;;;;;;;0.00;0.00;;;;;;;;;;1746049;28;20230;-84
2023/09/26 02:34:42;;;;;;;0.00;0.00;;;;;;;;;;1744028;28;20211;-83
2023/09/26 02:35:34;;;;;;;0.00;0.00;;;;;;;;;;1736898;28;20258;-83
2023/09/26 02:36:25;;;;;;;0.00;0.00;;;;;;;;;;1738429;28;20203;-83
2023/09/26 02:37:16;;;;;;;0.00;0.00;;;;;;;;;;1742750;28;20191;-82
2023/09/26 02:38:09;;;;;;;0.00;0.00;;;;;;;;;;1739795;28;20222;-83
2023/09/26 02:39:00;;;;;;;0.00;0.00;;;;;;;;;;1737837;28;20218;-82
2023/09/26 02:39:51;;;;;;;0.00;0.00;;;;;;;;;;1739754;28;20562;-82
2023/09/26 02:40:43;;;;;;;0.00;0.00;;;;;;;;;;1735383;28;20223;-83
2023/09/26 02:41:34;;;;;;;0.00;0.00;;;;;;;;;;1731817;28;20584;-83
2023/09/26 02:42:27;;;;;;;0.00;0.00;;;;;;;;;;1735094;28;20558;-83
2023/09/26 02:43:19;;;;;;;0.00;0.00;;;;;;;;;;1736900;28;20318;-83
2023/09/26 02:44:10;;;;;;;0.00;0.00;;;;;;;;;;1735098;28;20648;-84
2023/09/26 02:45:05;;;;;;;0.00;0.00;;;;;;;;;;1737663;28;20514;-84
2023/09/26 02:45:57;;;;;;;0.00;0.00;;;;;;;;;;1730039;28;20258;-83
2023/09/26 02:46:48;;;;;;;0.00;0.00;;;;;;;;;;1738391;28;20617;-84
2023/09/26 02:47:40;;;;;;;0.00;0.00;;;;;;;;;;1737715;28;20213;-84
2023/09/26 02:48:32;;;;;;;0.00;0.00;;;;;;;;;;1738065;28;20608;-83
2023/09/26 02:49:23;;;;;;;0.00;0.00;;;;;;;;;;1735411;28;20228;-83
2023/09/26 02:50:14;;;;;;;0.00;0.00;;;;;;;;;;1740001;28;20298;-83
2023/09/26 02:51:07;;;;;;;0.00;0.00;;;;;;;;;;1737636;28;20234;-84
2023/09/26 02:51:58;;;;;;;0.00;0.00;;;;;;;;;;1739161;28;20204;-83
2023/09/26 02:52:50;;;;;;;0.00;0.00;;;;;;;;;;1739021;28;20696;-83
2023/09/26 02:53:41;;;;;;;0.00;0.00;;;;;;;;;;1738823;28;20204;-84
2023/09/26 02:54:32;;;;;;;0.00;0.00;;;;;;;;;;1739916;28;20231;-84
2023/09/26 02:55:24;;;;;;;0.00;0.00;;;;;;;;;;1738502;28;20302;-84
2023/09/26 02:56:15;;;;;;;0.00;0.00;;;;;;;;;;1738724;28;20568;-83
2023/09/26 02:57:07;;;;;;;0.00;0.00;;;;;;;;;;1742652;28;20274;-84
2023/09/26 02:58:00;;;;;;;0.00;0.00;;;;;;;;;;1735848;28;20209;-83
2023/09/26 02:58:53;;;;;;;0.00;0.00;;;;;;;;;;1735592;28;20637;-83
2023/09/26 02:59:44;;;;;;;0.00;0.00;;;;;;;;;;1735740;28;20212;-83
2023/09/26 03:00:36;;;;;;;0.00;0.00;;;;;;;;;;1739172;28;20261;-84
2023/09/26 03:01:27;;;;;;;0.00;0.00;;;;;;;;;;1739534;28;20222;-84
2023/09/26 03:02:18;;;;;;;0.00;0.00;;;;;;;;;;1737620;28;20192;-84
2023/09/26 03:03:10;;;;;;;0.00;0.00;;;;;;;;;;1740637;28;20195;-84
2023/09/26 03:04:02;;;;;;;0.00;0.00;;;;;;;;;;1732953;28;20234;-83
2023/09/26 03:04:53;;;;;;;0.00;0.00;;;;;;;;;;1740473;28;20203;-83
2023/09/26 03:05:49;;;;;;;0.00;0.00;;;;;;;;;;1739785;28;20337;-84
2023/09/26 03:06:40;;;;;;;0.00;0.00;;;;;;;;;;1738780;28;20298;-83
2023/09/26 03:07:31;;;;;;;0.00;0.00;;;;;;;;;;1738516;28;20234;-83
2023/09/26 03:08:23;;;;;;;0.00;0.00;;;;;;;;;;1735481;28;20261;-83
2023/09/26 03:09:15;;;;;;;0.00;0.00;;;;;;;;;;1735491;28;20314;-84
2023/09/26 03:10:07;;;;;;;0.00;0.00;;;;;;;;;;1735537;28;20200;-83
2023/09/26 03:10:59;;;;;;;0.00;0.00;;;;;;;;;;1732285;28;20251;-84
2023/09/26 03:11:50;;;;;;;0.00;0.00;;;;;;;;;;1735298;28;20243;-84
2023/09/26 03:12:44;;;;;;;0.00;0.00;;;;;;;;;;1735896;28;20254;-83
2023/09/26 03:13:37;;;;;;;0.00;0.00;;;;;;;;;;1730120;28;20208;-83
2023/09/26 03:14:28;;;;;;;0.00;0.00;;;;;;;;;;1734399;28;20242;-84
2023/09/26 03:15:20;;;;;;;0.00;0.00;;;;;;;;;;1739922;28;20210;-84
2023/09/26 03:16:14;;;;;;;0.00;0.00;;;;;;;;;;1739038;28;20250;-84
2023/09/26 03:17:06;;;;;;;0.00;0.00;;;;;;;;;;1737332;28;20294;-84
2023/09/26 03:17:58;;;;;;;0.00;0.00;;;;;;;;;;1733272;28;20215;-83
2023/09/26 03:18:51;;;;;;;0.00;0.00;;;;;;;;;;1739768;28;20265;-83
2023/09/26 03:19:46;;;;;;;0.00;0.00;;;;;;;;;;1737457;28;20203;-84
2023/09/26 03:20:38;;;;;;;0.00;0.00;;;;;;;;;;1734531;28;20320;-83
2023/09/26 03:21:30;;;;;;;0.00;0.00;;;;;;;;;;1734552;28;20214;-83
2023/09/26 03:22:21;;;;;;;0.00;0.00;;;;;;;;;;1735205;28;20234;-83
2023/09/26 03:23:14;;;;;;;0.03;0.03;;;;;;;;;;1734811;28;20214;-83
2023/09/26 03:24:05;;;;;;;0.00;0.00;;;;;;;;;;1738425;28;20242;-83
2023/09/26 03:24:57;;;;;;;0.00;0.00;;;;;;;;;;1735013;28;20210;-83
2023/09/26 03:25:48;;;;;;;0.00;0.00;;;;;;;;;;1735072;28;20331;-83
2023/09/26 03:26:40;;;;;;;0.00;0.00;;;;;;;;;;1738155;28;20207;-83
2023/09/26 03:27:32;;;;;;;0.00;0.00;;;;;;;;;;1734970;28;20254;-83
2023/09/26 03:28:23;;;;;;;0.00;0.00;;;;;;;;;;1738096;28;20237;-83
2023/09/26 03:29:16;;;;;;;0.00;0.00;;;;;;;;;;1737923;28;20292;-83
2023/09/26 03:30:08;;;;;;;0.00;0.00;;;;;;;;;;1743727;28;20207;-83
2023/09/26 03:30:59;;;;;;;0.00;0.00;;;;;;;;;;1744704;28;20296;-83
2023/09/26 03:31:51;;;;;;;0.00;0.00;;;;;;;;;;1742490;28;20407;-83
2023/09/26 03:32:42;;;;;;;0.00;0.00;;;;;;;;;;1744880;28;20210;-84
2023/09/26 03:33:33;;;;;;;0.00;0.00;;;;;;;;;;1742240;28;20583;-83
2023/09/26 03:34:25;;;;;;;0.00;0.00;;;;;;;;;;1742034;28;20211;-83
2023/09/26 03:35:16;;;;;;;0.00;0.00;;;;;;;;;;1742963;28;20237;-83
2023/09/26 03:36:08;;;;;;;0.00;0.00;;;;;;;;;;1749211;28;20229;-83
2023/09/26 03:36:59;;;;;;;0.00;0.00;;;;;;;;;;1738415;28;20631;-83
2023/09/26 03:37:52;;;;;;;0.00;0.00;;;;;;;;;;1743424;28;20211;-84
2023/09/26 03:38:43;;;;;;;0.00;0.00;;;;;;;;;;1740471;28;20211;-84
2023/09/26 03:39:35;;;;;;;0.00;0.00;;;;;;;;;;1738132;28;20204;-84
2023/09/26 03:40:26;;;;;;;0.00;0.00;;;;;;;;;;1739142;28;20238;-83
2023/09/26 03:41:17;;;;;;;0.00;0.00;;;;;;;;;;1744369;28;20215;-83
2023/09/26 03:42:09;;;;;;;0.00;0.00;;;;;;;;;;1749679;28;20624;-84
2023/09/26 03:43:00;;;;;;;0.00;0.00;;;;;;;;;;1741827;28;20214;-83
2023/09/26 03:43:52;;;;;;;0.00;0.00;;;;;;;;;;1742492;28;20218;-80
2023/09/26 03:44:44;;;;;;;0.00;0.00;;;;;;;;;;1741665;28;20211;-81
2023/09/26 03:45:35;;;;;;;0.00;0.00;;;;;;;;;;1748489;28;20320;-81
2023/09/26 03:46:27;;;;;;;0.00;0.00;;;;;;;;;;1744553;28;20602;-81
2023/09/26 03:47:19;;;;;;;0.00;0.00;;;;;;;;;;1744233;28;20206;-83
2023/09/26 03:48:11;;;;;;;0.00;0.00;;;;;;;;;;1746561;28;20202;-83
2023/09/26 03:49:02;;;;;;;0.00;0.00;;;;;;;;;;1738739;28;20470;-82
2023/09/26 03:49:54;;;;;;;0.00;0.00;;;;;;;;;;1743241;28;20657;-82
2023/09/26 03:50:46;;;;;;;0.00;0.00;;;;;;;;;;1741575;28;20234;-81
2023/09/26 03:51:38;;;;;;;0.00;0.00;;;;;;;;;;1737727;28;20202;-80
2023/09/26 03:52:29;;;;;;;0.00;0.00;;;;;;;;;;1744915;28;20230;-81
2023/09/26 03:53:21;;;;;;;0.00;0.00;;;;;;;;;;1745192;28;20643;-81
2023/09/26 03:54:13;;;;;;;0.00;0.00;;;;;;;;;;1741588;28;20257;-81
2023/09/26 03:55:04;;;;;;;0.00;0.00;;;;;;;;;;1742030;28;20203;-81
2023/09/26 03:55:56;;;;;;;0.00;0.00;;;;;;;;;;1745299;28;20981;-81
2023/09/26 03:56:47;;;;;;;0.00;0.00;;;;;;;;;;1738020;28;20286;-81
2023/09/26 03:57:40;;;;;;;0.00;0.00;;;;;;;;;;1739563;28;20202;-81
2023/09/26 03:58:31;;;;;;;0.00;0.00;;;;;;;;;;1739588;28;20204;-82
2023/09/26 03:59:22;;;;;;;0.00;0.00;;;;;;;;;;1735107;28;20203;-82
2023/09/26 04:00:18;;;;;;;0.00;0.00;;;;;;;;;;1734796;28;20223;-82
2023/09/26 04:01:09;;;;;;;0.00;0.00;;;;;;;;;;1735209;28;20769;-82
2023/09/26 04:02:01;;;;;;;0.00;0.00;;;;;;;;;;1742238;28;20202;-82
2023/09/26 04:02:55;;;;;;;0.00;0.00;;;;;;;;;;1741614;28;20225;-82
2023/09/26 04:03:48;;;;;;;0.00;0.00;;;;;;;;;;1745283;28;20203;-82
2023/09/26 04:04:39;;;;;;;0.00;0.00;;;;;;;;;;1742021;28;20210;-82
2023/09/26 04:05:31;;;;;;;0.00;0.00;;;;;;;;;;1744985;28;20206;-83
2023/09/26 04:06:23;;;;;;;0.00;0.00;;;;;;;;;;1745548;28;20188;-83
2023/09/26 04:07:14;;;;;;;0.00;0.00;;;;;;;;;;1745791;28;20199;-82
2023/09/26 04:08:06;;;;;;;0.00;0.00;;;;;;;;;;1745575;28;20221;-82
2023/09/26 04:08:58;;;;;;;0.00;0.00;;;;;;;;;;1752494;28;20202;-82
2023/09/26 04:09:50;;;;;;;0.00;0.00;;;;;;;;;;1747095;28;20298;-82
2023/09/26 04:10:41;;;;;;;0.00;0.00;;;;;;;;;;1739237;28;20268;-82
2023/09/26 04:11:32;;;;;;;0.00;0.00;;;;;;;;;;1743538;28;20227;-82
2023/09/26 04:12:24;;;;;;;0.00;0.00;;;;;;;;;;1743099;28;20207;-82
2023/09/26 04:13:15;;;;;;;0.00;0.00;;;;;;;;;;1741422;28;20597;-82
2023/09/26 04:14:07;;;;;;;0.00;0.00;;;;;;;;;;1742734;28;20226;-82
2023/09/26 04:14:58;;;;;;;0.00;0.00;;;;;;;;;;1743349;28;20207;-82
2023/09/26 04:15:50;;;;;;;0.00;0.00;;;;;;;;;;1740749;28;20535;-82
2023/09/26 04:16:42;;;;;;;0.00;0.00;;;;;;;;;;1742558;28;20264;-82
2023/09/26 04:17:34;;;;;;;0.00;0.00;;;;;;;;;;1742514;28;20203;-81
2023/09/26 04:18:25;;;;;;;0.00;0.00;;;;;;;;;;1744121;28;20214;-82
2023/09/26 04:19:17;;;;;;;0.00;0.00;;;;;;;;;;1743369;28;20199;-82
2023/09/26 04:20:19;;;;;;;0.00;0.00;;;;;;;;;;1745389;28;20203;-82
2023/09/26 04:21:10;;;;;;;0.00;0.00;;;;;;;;;;1739491;28;20265;-82
2023/09/26 04:22:03;;;;;;;0.00;0.00;;;;;;;;;;1745268;28;20229;-82
2023/09/26 04:22:54;;;;;;;0.00;0.00;;;;;;;;;;1746340;28;20273;-82
2023/09/26 04:23:45;;;;;;;0.00;0.00;;;;;;;;;;1747606;28;20511;-82
2023/09/26 04:24:37;;;;;;;0.00;0.00;;;;;;;;;;1745411;28;20206;-82
2023/09/26 04:25:29;;;;;;;0.00;0.00;;;;;;;;;;1747179;28;20218;-82
2023/09/26 04:26:20;;;;;;;0.00;0.00;;;;;;;;;;1745479;28;20190;-82
2023/09/26 04:27:12;;;;;;;0.00;0.00;;;;;;;;;;1745777;28;20202;-82
2023/09/26 04:28:04;;;;;;;0.00;0.00;;;;;;;;;;1744780;28;20202;-82
2023/09/26 04:28:55;;;;;;;0.00;0.00;;;;;;;;;;1751638;28;20202;-82
2023/09/26 04:29:47;;;;;;;0.00;0.00;;;;;;;;;;1739775;28;20239;-82
2023/09/26 04:30:39;;;;;;;0.00;0.00;;;;;;;;;;1734388;28;20250;-82
2023/09/26 04:31:33;;;;;;;0.00;0.00;;;;;;;;;;1734379;28;20200;-82
2023/09/26 04:32:24;;;;;;;0.00;0.00;;;;;;;;;;1734736;28;20212;-82
2023/09/26 04:33:15;;;;;;;0.00;0.00;;;;;;;;;;1738466;28;20237;-82
2023/09/26 04:34:07;;;;;;;0.00;0.00;;;;;;;;;;1734210;28;20541;-82
2023/09/26 04:34:58;;;;;;;0.00;0.00;;;;;;;;;;1736044;28;20232;-82
2023/09/26 04:35:56;;;;;;;0.00;0.00;;;;;;;;;;1736550;28;20223;-83
2023/09/26 04:36:48;;;;;;;0.00;0.00;;;;;;;;;;1736508;28;20207;-83
2023/09/26 04:37:39;;;;;;;0.00;0.00;;;;;;;;;;1735683;28;20533;-82
2023/09/26 04:38:31;;;;;;;0.00;0.00;;;;;;;;;;1736476;28;20199;-81
2023/09/26 04:39:22;;;;;;;0.00;0.00;;;;;;;;;;1737048;28;20242;-82
2023/09/26 04:40:14;;;;;;;0.00;0.00;;;;;;;;;;1734880;28;20261;-83
2023/09/26 04:41:06;;;;;;;0.00;0.00;;;;;;;;;;1735531;28;20216;-83
2023/09/26 04:41:57;;;;;;;0.00;0.00;;;;;;;;;;1735468;28;20645;-82
2023/09/26 04:42:50;;;;;;;0.00;0.00;;;;;;;;;;1735772;28;20199;-82
2023/09/26 04:43:41;;;;;;;0.00;0.00;;;;;;;;;;1736354;28;20322;-83
2023/09/26 04:44:33;;;;;;;0.00;0.00;;;;;;;;;;1735429;28;20660;-83
2023/09/26 04:45:25;;;;;;;0.00;0.00;;;;;;;;;;1733643;28;20760;-83
2023/09/26 04:46:17;;;;;;;0.00;0.00;;;;;;;;;;1733449;28;20547;-81
2023/09/26 04:47:10;;;;;;;0.00;0.00;;;;;;;;;;1734390;28;20223;-82
2023/09/26 04:48:02;;;;;;;0.00;0.00;;;;;;;;;;1735868;28;20212;-82
2023/09/26 04:48:53;;;;;;;0.00;0.00;;;;;;;;;;1735017;28;20265;-82
2023/09/26 04:49:44;;;;;;;0.00;0.00;;;;;;;;;;1734036;28;20739;-83
2023/09/26 04:50:37;;;;;;;0.00;0.00;;;;;;;;;;1736171;28;20242;-84
2023/09/26 04:51:28;;;;;;;0.00;0.00;;;;;;;;;;1731185;28;20223;-84
2023/09/26 04:52:20;;;;;;;0.00;0.00;;;;;;;;;;1734912;28;20684;-83
2023/09/26 04:53:12;;;;;;;0.00;0.00;;;;;;;;;;1734209;28;20242;-82
2023/09/26 04:54:04;;;;;;;0.00;0.00;;;;;;;;;;1735087;28;20210;-83
2023/09/26 04:54:55;;;;;;;0.00;0.00;;;;;;;;;;1738245;28;20238;-82
2023/09/26 04:55:47;;;;;;;0.00;0.00;;;;;;;;;;1735835;28;20219;-83
2023/09/26 04:56:38;;;;;;;0.00;0.00;;;;;;;;;;1733976;28;20204;-83
2023/09/26 04:57:29;;;;;;;0.00;0.00;;;;;;;;;;1734456;28;20230;-83
2023/09/26 04:58:21;;;;;;;0.00;0.00;;;;;;;;;;1733535;28;20207;-82
2023/09/26 04:59:12;;;;;;;0.00;0.00;;;;;;;;;;1734467;28;20228;-82
2023/09/26 05:00:05;;;;;;;0.00;0.00;;;;;;;;;;1736376;28;20283;-82
2023/09/26 05:01:00;;;;;;;0.00;0.00;;;;;;;;;;1732770;28;20597;-83
2023/09/26 05:01:51;;;;;;;0.00;0.00;;;;;;;;;;1734177;28;20339;-83
2023/09/26 05:02:45;;;;;;;0.00;0.00;;;;;;;;;;1734717;28;21029;-83
2023/09/26 05:03:36;;;;;;;0.00;0.00;;;;;;;;;;1731485;28;20212;-82
2023/09/26 05:04:27;;;;;;;0.00;0.00;;;;;;;;;;1734710;28;20208;-83
2023/09/26 05:05:20;;;;;;;0.00;0.00;;;;;;;;;;1734406;28;20208;-82
2023/09/26 05:06:11;;;;;;;0.00;0.00;;;;;;;;;;1735517;28;20195;-82
2023/09/26 05:07:02;;;;;;;0.00;0.00;;;;;;;;;;1734349;28;20195;-82
2023/09/26 05:07:54;;;;;;;0.00;0.00;;;;;;;;;;1735766;28;20218;-82
2023/09/26 05:08:45;;;;;;;0.00;0.00;;;;;;;;;;1737002;28;20582;-83
2023/09/26 05:09:37;;;;;;;0.00;0.00;;;;;;;;;;1736327;28;20518;-82
2023/09/26 05:10:29;;;;;;;0.00;0.00;;;;;;;;;;1733723;28;20471;-83
2023/09/26 05:11:20;;;;;;;0.00;0.00;;;;;;;;;;1735645;28;20204;-81
2023/09/26 05:12:11;;;;;;;0.00;0.00;;;;;;;;;;1734793;28;20760;-81
2023/09/26 05:13:03;;;;;;;0.00;0.00;;;;;;;;;;1733769;28;20203;-81
2023/09/26 05:13:55;;;;;;;0.00;0.00;;;;;;;;;;1733604;28;20199;-81
2023/09/26 05:14:46;;;;;;;0.00;0.00;;;;;;;;;;1733196;28;20690;-82
2023/09/26 05:15:38;;;;;;;0.00;0.00;;;;;;;;;;1732509;28;20227;-81
2023/09/26 05:16:30;;;;;;;0.00;0.00;;;;;;;;;;1733737;28;20318;-80
2023/09/26 05:17:24;;;;;;;0.00;0.00;;;;;;;;;;1733114;28;20271;-82
2023/09/26 05:18:18;;;;;;;0.00;0.00;;;;;;;;;;1733534;28;20246;-81